Terminal Aerodrome Forecast
Issued by NWS

Home | Current Version | Previous Version | Text Only | Print | Product List | Glossary Off
Versions: 1 2 3 4 5 6 7 8 9 10 11 12 13 14 15 16

000
FTUS43 KMPX 211700 RRA
TAFRWF
TAF
KRWF 211739Z 2118/2218 21009KT P6SM SCT015 SCT050
      TEMPO 2118/2121 BKN015
     FM220000 32005KT P6SM SKC
     FM220600 VRB03KT 5SM BR SCT005
     FM220900 VRB03KT 2SM BR OVC003
     FM221400 36005KT 5SM BR BKN012=

USA.gov is the U.S. government's official web portal to all federal, state and local government web resources and services.